Time;durP1;ratioP1;P1;durP2;ratioP2;P2;SDS_P1;SDS_P2;PMS_P1;PMS_P2;Temp;Humidity;BMP_temperature;BMP_pressure;BME280_temperature;BME280_humidity;BME280_pressure;Samples;Min_cycle;Max_cycle;Signal;HPM_P1;HPM_P2
2022/01/21 00:02:03;;;;;;;5.93;2.17;;;0.80;94.20;;;0.95;65.95;98870.72;5106424;28;20047;-40
2022/01/21 00:04:34;;;;;;;7.40;2.13;;;0.70;94.00;;;1.03;66.45;98867.72;5107976;28;20050;-40
2022/01/21 00:07:03;;;;;;;8.47;2.70;;;0.80;94.20;;;1.01;66.08;98867.81;5109492;28;20051;-40
2022/01/21 00:09:31;;;;;;;9.07;2.53;;;0.90;92.80;;;1.07;66.02;98879.81;5108528;28;20368;-41
2022/01/21 00:11:59;;;;;;;6.47;2.60;;;0.90;93.30;;;1.16;66.00;98872.34;5107494;28;20058;-40
2022/01/21 00:14:27;;;;;;;6.93;2.70;;;1.00;93.90;;;1.22;65.85;98875.59;5107604;28;20055;-40
2022/01/21 00:16:55;;;;;;;4.70;2.57;;;1.00;93.50;;;1.19;65.84;98873.97;5107616;28;20361;-40
2022/01/21 00:19:25;;;;;;;6.67;2.40;;;1.00;92.10;;;1.14;65.97;98887.31;5107986;28;20057;-40
2022/01/21 00:32:44;;;;;;;8.93;3.20;;;1.00;91.70;;;1.24;65.69;98868.50;5106285;28;20059;-40
2022/01/21 00:35:13;;;;;;;19.03;6.83;;;1.10;91.90;;;1.23;65.24;98872.06;5107426;28;20047;-40
2022/01/21 00:37:41;;;;;;;6.57;3.03;;;1.00;91.40;;;1.27;65.44;98863.13;5106533;28;20063;-40
2022/01/21 00:40:15;;;;;;;7.90;2.60;;;1.00;91.90;;;1.25;65.70;98864.97;5107821;28;20062;-40
2022/01/21 00:45:13;;;;;;;5.67;2.10;;;1.00;91.50;;;1.27;65.33;98871.84;5108787;28;20055;-40
2022/01/21 00:47:43;;;;;;;8.07;2.53;;;1.10;91.90;;;1.29;65.21;98871.78;5108031;28;20346;-40
2022/01/21 00:50:13;;;;;;;7.17;2.87;;;1.10;91.20;;;1.28;66.05;98878.78;5106697;28;20057;-40
2022/01/21 00:52:42;;;;;;;4.17;2.13;;;1.10;92.40;;;1.19;65.51;98889.72;5107197;28;20051;-40
2022/01/21 00:55:11;;;;;;;8.37;3.40;;;1.00;92.70;;;1.12;65.42;98888.28;5106712;28;20061;-40
2022/01/21 00:57:39;;;;;;;5.50;2.13;;;1.00;92.30;;;1.07;65.78;98885.91;5107070;28;20069;-40
2022/01/21 01:00:10;;;;;;;4.43;2.23;;;0.90;93.30;;;1.14;65.82;98889.94;5106635;28;20058;-40
2022/01/21 01:02:39;;;;;;;6.43;2.47;;;1.00;93.70;;;1.18;66.15;98880.13;5107368;28;20557;-40
2022/01/21 01:05:09;;;;;;;4.83;3.10;;;1.00;93.30;;;1.13;66.42;98892.63;5106901;28;20337;-40
2022/01/21 01:07:37;;;;;;;9.17;2.60;;;1.00;92.70;;;1.16;66.14;98900.34;5107993;28;20051;-40
2022/01/21 01:10:11;;;;;;;6.63;2.27;;;1.00;92.40;;;1.20;65.74;98901.06;5105981;28;20044;-41
2022/01/21 01:19:53;;;;;;;8.17;3.10;;;1.00;92.70;;;1.13;66.08;98903.97;5106677;28;20040;-40
2022/01/21 01:21:00;;;;;;;7.73;2.60;;;0.90;92.50;;;1.06;66.25;98912.19;5088508;28;20060;-42
2022/01/21 01:23:50;;;;;;;8.87;2.90;;;0.90;94.60;;;1.12;65.99;98914.53;5088033;28;20086;-40
2022/01/21 01:29:06;;;;;;;4.07;2.63;;;1.00;92.80;;;1.21;66.04;98918.50;5089154;28;20058;-40
2022/01/21 01:31:33;;;;;;;3.17;2.00;;;1.00;94.00;;;1.18;66.40;98916.84;5105780;28;20082;-40
2022/01/21 01:34:02;;;;;;;7.43;2.53;;;1.00;92.30;;;1.14;65.88;98924.03;5106877;28;20073;-40
2022/01/21 01:36:31;;;;;;;6.43;3.00;;;1.00;91.80;;;1.24;65.85;98929.72;5107726;28;20043;-40
2022/01/21 01:39:27;;;;;;;7.80;2.17;;;1.10;92.60;;;1.15;65.81;98928.34;5106904;28;20256;-40
2022/01/21 01:50:09;;;;;;;9.90;2.63;;;1.00;92.50;;;1.25;65.97;98914.81;5087612;28;20265;-40
2022/01/21 01:52:37;;;;;;;6.63;2.83;;;1.00;92.90;;;1.31;65.94;98914.53;5106493;28;20051;-40
2022/01/21 01:55:06;;;;;;;6.10;2.90;;;1.10;93.00;;;1.29;65.92;98911.13;5088202;28;20053;-40
2022/01/21 01:57:34;;;;;;;7.27;2.20;;;1.10;92.30;;;1.29;65.95;98909.34;5106718;28;20456;-40
2022/01/21 02:00:05;;;;;;;7.17;2.33;;;1.10;92.50;;;1.27;65.30;98907.72;5089481;28;20058;-40
2022/01/21 02:02:39;;;;;;;6.73;2.77;;;1.10;91.70;;;1.22;66.04;98904.44;5110321;28;20054;-40
2022/01/21 02:05:08;;;;;;;5.33;2.47;;;1.00;92.20;;;1.25;65.31;98899.91;5106904;28;20047;-39
2022/01/21 02:07:36;;;;;;;6.20;2.90;;;1.00;92.70;;;1.20;66.00;98901.06;5088486;28;20051;-40
2022/01/21 02:10:05;;;;;;;4.53;2.23;;;1.00;91.60;;;1.23;65.30;98893.91;5086819;28;20057;-40
2022/01/21 02:12:35;;;;;;;4.37;2.00;;;1.00;92.50;;;1.21;65.72;98892.28;5107783;28;20055;-40
2022/01/21 02:15:03;;;;;;;4.10;2.23;;;0.90;91.70;;;1.21;65.64;98893.13;5109653;28;20346;-40
2022/01/21 02:22:48;;;;;;;7.00;2.80;;;0.80;92.50;;;1.19;65.10;98881.84;5107920;28;20056;-40
2022/01/21 02:25:19;;;;;;;4.63;2.03;;;0.90;92.20;;;1.20;64.75;98899.28;5091559;28;20055;-40
2022/01/21 02:27:53;;;;;;;5.70;2.17;;;0.90;92.00;;;1.14;64.90;98886.44;5092330;28;20056;-40
2022/01/21 02:30:23;;;;;;;6.83;2.60;;;0.80;92.00;;;1.19;64.94;98884.47;5091672;28;20056;-40
2022/01/21 02:32:58;;;;;;;8.47;3.13;;;0.90;92.50;;;1.17;65.34;98892.41;5089945;28;20054;-40
2022/01/21 02:35:26;;;;;;;5.83;2.13;;;0.90;92.00;;;1.20;65.49;98893.19;5110280;28;20059;-41
2022/01/21 02:37:54;;;;;;;8.50;2.73;;;0.90;91.80;;;1.14;64.99;98897.81;5089901;28;20063;-41
2022/01/21 02:40:23;;;;;;;8.37;2.67;;;0.80;91.90;;;1.12;65.02;98902.25;5108482;28;20059;-41
2022/01/21 02:42:51;;;;;;;6.87;2.77;;;0.80;92.20;;;1.03;64.96;98915.81;5091233;28;20051;-39
2022/01/21 02:45:19;;;;;;;6.13;2.20;;;0.70;92.80;;;0.87;66.09;98913.00;5091187;28;20047;-39
2022/01/21 02:47:47;;;;;;;14.47;4.00;;;0.60;94.20;;;0.98;66.09;98915.16;5091867;28;20048;-39
2022/01/21 02:50:16;;;;;;;7.87;2.63;;;0.70;95.60;;;1.05;65.63;98918.34;5089375;28;20060;-39
2022/01/21 02:52:56;;;;;;;5.20;2.47;;;0.80;95.50;;;1.04;66.38;98916.66;5090400;28;20061;-39
2022/01/21 02:55:25;;;;;;;9.77;3.77;;;0.80;94.00;;;1.02;65.82;98908.00;5091112;28;20048;-39
2022/01/21 02:57:53;;;;;;;7.13;2.87;;;0.80;94.00;;;1.01;65.73;98907.16;5091292;28;20253;-39
2022/01/21 03:00:21;;;;;;;12.93;2.83;;;0.80;94.20;;;1.05;66.10;98907.84;5074331;28;20048;-39
2022/01/21 03:02:50;;;;;;;8.20;2.90;;;0.80;94.40;;;1.08;65.97;98916.44;5108202;28;20048;-39
2022/01/21 03:05:19;;;;;;;5.40;2.50;;;0.80;95.20;;;1.04;66.29;98924.53;5091359;28;20073;-39
2022/01/21 03:07:50;;;;;;;6.83;2.67;;;0.80;94.70;;;0.98;65.89;98928.28;5089679;28;20059;-39
2022/01/21 03:10:20;;;;;;;4.63;2.20;;;0.70;94.50;;;1.09;65.68;98928.63;5091183;28;20069;-39
2022/01/21 03:12:48;;;;;;;9.03;3.20;;;0.80;94.70;;;1.12;65.83;98936.34;5108670;28;20042;-39
2022/01/21 03:15:15;;;;;;;5.30;2.30;;;0.90;94.70;;;1.11;65.94;98923.34;5090284;28;20058;-39
2022/01/21 03:17:43;;;;;;;4.97;2.40;;;0.90;93.50;;;1.10;65.36;98927.69;5089806;28;20373;-39
2022/01/21 03:20:13;;;;;;;6.70;3.93;;;0.80;93.00;;;1.05;65.22;98927.09;5091175;28;20275;-39
2022/01/21 03:22:40;;;;;;;7.73;3.37;;;0.70;93.70;;;0.96;65.84;98919.63;5108173;28;20047;-39
2022/01/21 03:25:09;;;;;;;10.03;2.80;;;0.60;93.30;;;0.90;65.74;98918.13;5108729;28;20065;-39
2022/01/21 03:27:37;;;;;;;10.57;4.83;;;0.60;94.40;;;0.80;66.27;98921.25;5107936;28;20085;-39
2022/01/21 03:30:09;;;;;;;7.50;2.83;;;0.50;93.90;;;0.88;65.66;98922.59;5089786;28;20070;-39
2022/01/21 03:32:45;;;;;;;4.90;2.17;;;0.60;94.80;;;0.90;65.30;98928.63;5090899;28;20583;-39
2022/01/21 03:35:13;;;;;;;6.10;2.67;;;0.60;94.00;;;0.87;66.06;98933.16;5090954;28;20044;-39
2022/01/21 03:37:41;;;;;;;7.00;2.50;;;0.60;94.30;;;0.84;65.52;98934.16;5089263;28;20354;-39
2022/01/21 03:40:09;;;;;;;6.57;2.33;;;0.50;94.20;;;0.77;65.93;98938.78;5108150;28;20053;-39
2022/01/21 03:42:38;;;;;;;4.50;2.10;;;0.50;94.70;;;0.64;66.38;98935.03;5106364;28;20051;-39
2022/01/21 03:45:09;;;;;;;8.17;2.33;;;0.40;94.70;;;0.50;66.27;98932.16;5090290;28;20059;-39
2022/01/21 03:47:36;;;;;;;4.43;2.17;;;0.30;95.60;;;0.60;65.75;98933.44;5108329;28;20342;-39
2022/01/21 03:50:21;;;;;;;6.73;2.60;;;0.20;96.00;;;0.57;66.16;98934.44;5090924;28;20234;-39
2022/01/21 03:52:51;;;;;;;5.97;2.57;;;0.30;95.40;;;0.61;66.21;98929.06;5109831;28;20151;-39
2022/01/21 03:55:20;;;;;;;4.53;2.47;;;0.30;96.40;;;0.57;66.14;98944.94;5090330;28;20054;-39
2022/01/21 03:57:49;;;;;;;5.63;2.73;;;0.30;96.00;;;0.62;66.36;98943.88;5107684;28;20055;-39
2022/01/21 04:00:30;;;;;;;7.37;2.50;;;0.40;96.40;;;0.67;66.21;98949.78;5089683;28;20277;-39
2022/01/21 04:02:59;;;;;;;8.87;2.90;;;0.40;95.80;;;0.55;66.34;98945.91;5105366;28;20245;-39
2022/01/21 04:05:28;;;;;;;8.37;2.83;;;0.30;96.30;;;0.51;66.05;98942.56;5089840;28;20058;-39
2022/01/21 04:07:56;;;;;;;4.73;3.03;;;0.20;96.60;;;0.51;66.60;98937.34;5090563;28;20054;-39
2022/01/21 04:10:27;;;;;;;5.80;2.17;;;0.20;97.80;;;0.58;66.56;98938.78;5088104;28;20242;-39
2022/01/21 04:12:54;;;;;;;5.97;3.20;;;0.30;97.70;;;0.58;66.68;98938.78;5108086;28;20047;-39
2022/01/21 04:15:23;;;;;;;7.23;3.13;;;0.30;97.40;;;0.59;66.38;98931.75;5089237;28;20054;-39
2022/01/21 04:17:51;;;;;;;8.77;2.80;;;0.30;97.50;;;0.63;65.89;98935.09;5089731;28;20066;-39
2022/01/21 04:20:22;;;;;;;11.53;3.87;;;0.40;97.50;;;0.64;66.06;98940.28;5106673;28;20059;-39
2022/01/21 04:22:50;;;;;;;9.67;2.43;;;0.40;96.80;;;0.60;65.98;98946.56;5106578;28;20324;-39
2022/01/21 04:25:18;;;;;;;6.73;3.10;;;0.30;97.00;;;0.53;66.86;98956.47;5088639;28;20065;-39
2022/01/21 04:27:46;;;;;;;7.47;3.30;;;0.20;97.40;;;0.51;66.70;98953.06;5089332;28;20066;-39
2022/01/21 04:30:14;;;;;;;6.20;3.10;;;0.20;97.80;;;0.47;66.91;98956.72;5088791;28;20051;-39
2022/01/21 04:32:42;;;;;;;9.43;3.80;;;0.20;98.20;;;0.42;66.86;98965.69;5104913;28;20040;-39
2022/01/21 04:35:20;;;;;;;7.00;3.10;;;0.10;98.70;;;0.38;66.45;98971.06;5089263;28;20057;-39
2022/01/21 04:37:55;;;;;;;5.50;2.37;;;0.10;99.60;;;0.46;67.34;98977.75;5088459;28;20358;-39
2022/01/21 04:40:28;;;;;;;7.63;2.70;;;0.20;99.90;;;0.48;67.40;98968.91;5089034;28;20066;-39
2022/01/21 04:48:37;;;;;;;8.97;2.77;;;0.20;98.50;;;0.50;67.09;98971.47;5108013;28;20047;-39
2022/01/21 04:51:17;;;;;;;5.63;2.90;;;0.30;98.90;;;0.53;66.53;98966.09;5089433;28;20054;-39
2022/01/21 04:53:48;;;;;;;7.40;2.80;;;0.40;98.60;;;0.59;66.92;98971.91;5088201;28;20070;-39
2022/01/21 04:56:22;;;;;;;4.97;2.83;;;0.40;98.70;;;0.61;67.04;98979.72;5088372;28;20245;-39
2022/01/21 04:58:53;;;;;;;4.80;2.40;;;0.40;97.80;;;0.48;67.23;98974.13;5089778;28;20401;-39
2022/01/21 05:01:21;;;;;;;5.93;3.33;;;0.30;98.00;;;0.43;67.31;98980.50;5105423;28;20375;-39
2022/01/21 05:03:50;;;;;;;5.83;3.20;;;0.20;99.50;;;0.46;66.71;98972.50;5105904;28;20249;-39
2022/01/21 05:06:18;;;;;;;7.20;3.87;;;0.30;99.70;;;0.53;67.60;98964.31;5090217;28;20063;-39
2022/01/21 05:08:54;;;;;;;8.07;3.20;;;0.40;99.60;;;0.50;66.66;98972.31;5107714;28;20468;-39
2022/01/21 05:11:25;;;;;;;8.23;2.47;;;0.30;98.70;;;0.55;67.26;98982.59;5088058;28;20160;-39
2022/01/21 05:13:58;;;;;;;5.83;2.77;;;0.30;98.80;;;0.51;67.23;98989.75;5089283;28;20054;-39
2022/01/21 05:16:36;;;;;;;5.60;2.40;;;0.30;99.00;;;0.42;66.68;98995.38;5106406;28;20044;-39
2022/01/21 05:19:17;;;;;;;11.50;4.00;;;0.30;98.90;;;0.34;67.22;98997.47;5106004;28;20055;-39
2022/01/21 05:22:05;;;;;;;9.67;3.73;;;0.20;99.90;;;0.37;67.73;99006.06;5104588;28;20338;-39
2022/01/21 05:24:38;;;;;;;5.97;3.22;;;0.20;99.50;;;0.26;67.07;99007.41;5087651;28;20060;-39
2022/01/21 05:27:07;;;;;;;6.10;2.53;;;0.20;99.30;;;0.35;67.57;99004.41;5105911;28;20059;-39
2022/01/21 05:29:43;;;;;;;6.57;3.00;;;0.20;99.80;;;0.43;67.36;99017.19;5088199;28;20346;-39
2022/01/21 05:32:29;;;;;;;6.80;3.07;;;0.30;99.10;;;0.44;67.17;99024.13;5087253;28;20063;-39
2022/01/21 05:34:57;;;;;;;7.63;2.90;;;0.30;99.50;;;0.49;67.42;99024.81;5106797;28;20055;-39
2022/01/21 05:37:43;;;;;;;8.80;3.20;;;0.40;99.40;;;0.53;67.09;99021.13;5109459;28;20049;-39
2022/01/21 05:40:46;;;;;;;6.57;2.90;;;0.30;99.80;;;0.59;66.92;99013.84;5095770;28;20055;-39
2022/01/21 05:43:58;;;;;;;4.97;2.67;;;0.40;99.80;;;0.55;67.65;99014.06;5084114;28;20095;-39
2022/01/21 05:46:55;;;;;;;8.03;4.33;;;0.40;98.70;;;0.56;67.18;99011.38;5108755;28;20065;-39
2022/01/21 05:50:02;;;;;;;6.63;3.42;;;0.40;99.10;;;0.61;66.74;99015.56;5107104;28;20047;-39
2022/01/21 05:52:57;;;;;;;7.13;3.50;;;0.40;99.20;;;0.57;67.55;99009.59;5091515;28;20241;-39
2022/01/21 05:56:00;;;;;;;9.13;3.57;;;0.40;98.50;;;0.66;66.90;99011.84;5096938;28;20067;-39
2022/01/21 05:58:35;;;;;;;6.40;2.90;;;0.40;99.30;;;0.74;67.54;99003.66;5111271;28;20062;-39
2022/01/21 06:01:03;;;;;;;7.33;2.77;;;0.50;98.80;;;0.71;66.72;98999.38;5110977;28;20058;-39
2022/01/21 06:03:33;;;;;;;6.00;3.13;;;0.50;98.20;;;0.74;66.23;98999.25;5091928;28;20054;-39
2022/01/21 06:06:01;;;;;;;5.80;3.43;;;0.50;97.10;;;0.70;66.45;98996.81;5110037;28;20048;-39
2022/01/21 06:08:29;;;;;;;7.33;2.87;;;0.50;96.70;;;0.70;66.70;99004.66;5090820;28;20044;-39
2022/01/21 06:10:57;;;;;;;10.80;3.40;;;0.50;96.90;;;0.61;67.25;99010.31;5109741;28;20053;-38
2022/01/21 06:13:24;;;;;;;7.57;2.90;;;0.40;96.60;;;0.53;66.78;99010.66;5109828;28;20051;-38
2022/01/21 06:15:54;;;;;;;7.73;2.97;;;0.30;97.10;;;0.52;67.30;99020.25;5109260;28;20242;-39
2022/01/21 06:18:23;;;;;;;10.93;3.23;;;0.40;97.80;;;0.50;67.09;99035.19;5109476;28;20054;-38
2022/01/21 06:20:51;;;;;;;8.13;2.93;;;0.30;98.00;;;0.46;67.61;99038.03;5109823;28;20044;-38
2022/01/21 06:23:20;;;;;;;7.90;3.53;;;0.30;98.80;;;0.46;67.61;99040.66;5109444;28;20380;-38
2022/01/21 06:25:47;;;;;;;6.30;3.30;;;0.30;99.40;;;0.39;67.47;99042.69;5108030;28;20059;-38
2022/01/21 06:28:15;;;;;;;10.70;4.77;;;0.30;99.60;;;0.45;67.17;99049.44;5110755;28;20039;-38
2022/01/21 06:30:43;;;;;;;7.77;3.23;;;0.30;99.90;;;0.48;67.23;99042.28;5108875;28;20054;-38
2022/01/21 06:33:11;;;;;;;7.20;3.93;;;0.30;99.90;;;0.45;68.06;99059.91;5109011;28;20360;-38
2022/01/21 06:35:39;;;;;;;7.97;4.07;;;0.30;99.90;;;0.52;67.17;99070.06;5108786;28;20051;-39
2022/01/21 06:38:07;;;;;;;10.03;4.60;;;0.30;99.90;;;0.49;67.80;99075.44;5109236;28;20364;-38
2022/01/21 06:40:35;;;;;;;7.80;4.63;;;0.30;99.70;;;0.48;67.35;99067.63;5109802;28;20370;-39
2022/01/21 06:43:07;;;;;;;12.53;5.40;;;0.30;99.90;;;0.57;66.96;99075.13;5109156;28;20373;-39
2022/01/21 06:45:35;;;;;;;7.67;3.07;;;0.40;99.90;;;0.54;67.05;99077.84;5109050;28;20368;-39
2022/01/21 06:48:03;;;;;;;10.60;3.40;;;0.40;99.00;;;0.55;67.03;99088.28;5108187;28;20048;-39
2022/01/21 06:50:33;;;;;;;11.07;4.87;;;0.30;99.90;;;0.61;67.33;99079.31;5107858;28;20052;-39
2022/01/21 06:53:01;;;;;;;7.07;3.03;;;0.40;99.10;;;0.71;67.63;99095.50;5091872;28;20050;-39
2022/01/21 06:55:29;;;;;;;7.23;4.30;;;0.50;99.70;;;0.74;67.44;99087.53;5108336;28;20044;-39
2022/01/21 06:57:57;;;;;;;10.17;3.27;;;0.50;98.50;;;0.67;67.07;99086.91;5107818;28;20256;-39
2022/01/21 07:00:25;;;;;;;8.23;3.53;;;0.50;97.50;;;0.69;66.71;99079.84;5108827;28;20246;-39
2022/01/21 07:02:54;;;;;;;9.43;4.43;;;0.50;98.40;;;0.76;67.07;99081.31;5107713;28;20066;-39
2022/01/21 07:05:25;;;;;;;8.07;4.43;;;0.60;98.20;;;0.76;67.31;99076.06;5108718;28;20059;-39
2022/01/21 07:07:54;;;;;;;9.70;4.33;;;0.50;98.50;;;0.75;66.94;99083.97;5108345;28;20058;-39
2022/01/21 07:10:22;;;;;;;10.47;4.43;;;0.50;97.40;;;0.80;66.71;99086.44;5108298;28;20050;-39
2022/01/21 07:12:51;;;;;;;5.80;3.23;;;0.60;97.80;;;0.82;67.01;99088.06;5108545;28;20250;-39
2022/01/21 07:15:19;;;;;;;8.07;3.30;;;0.60;97.80;;;0.74;66.52;99091.00;5109592;28;20074;-38
2022/01/21 07:17:52;;;;;;;8.47;3.93;;;0.50;96.90;;;0.83;66.29;99089.75;5108712;28;20085;-39
2022/01/21 07:20:21;;;;;;;8.57;3.47;;;0.60;98.60;;;0.85;66.49;99084.44;5108011;28;20306;-38
2022/01/21 07:22:49;;;;;;;6.83;4.10;;;0.60;97.70;;;0.87;66.31;99090.47;5107943;28;20054;-38
2022/01/21 07:25:17;;;;;;;6.47;3.43;;;0.60;97.10;;;0.87;67.05;99091.31;5107270;28;20051;-38
2022/01/21 07:27:50;;;;;;;8.63;3.77;;;0.60;97.60;;;0.87;66.76;99087.84;5109370;28;20577;-38
2022/01/21 07:30:18;;;;;;;9.70;3.87;;;0.60;96.40;;;0.87;66.30;99090.47;5108589;28;20239;-38
2022/01/21 07:32:46;;;;;;;13.23;4.60;;;0.60;97.30;;;0.89;66.69;99088.63;5107921;28;20055;-38
2022/01/21 07:35:16;;;;;;;7.17;3.90;;;0.60;97.10;;;0.87;66.81;99086.06;5107613;28;20051;-38
2022/01/21 07:38:04;;;;;;;7.90;3.63;;;0.50;96.90;;;0.87;66.76;99093.94;5107559;28;20053;-38
2022/01/21 07:40:32;;;;;;;8.03;3.80;;;0.60;97.10;;;0.86;66.65;99092.25;5107894;28;20047;-38
2022/01/21 07:43:00;;;;;;;10.20;4.47;;;0.60;96.90;;;0.80;66.13;99094.28;5104551;28;20055;-39
2022/01/21 07:45:27;;;;;;;9.10;3.60;;;0.50;97.20;;;0.83;66.63;99092.38;5107340;28;20062;-38
2022/01/21 07:47:55;;;;;;;6.73;3.57;;;0.50;97.20;;;0.87;66.90;99087.84;5107336;28;20253;-38
2022/01/21 07:50:23;;;;;;;9.77;3.50;;;0.60;97.50;;;0.96;66.65;99088.31;5108351;28;20039;-38
2022/01/21 07:52:51;;;;;;;6.20;3.47;;;0.70;96.80;;;0.95;65.72;99098.84;5108893;28;20039;-38
2022/01/21 07:55:19;;;;;;;11.50;4.30;;;0.70;94.60;;;0.93;66.67;99096.31;5108120;28;20047;-38
2022/01/21 07:57:46;;;;;;;9.13;3.77;;;0.70;96.20;;;0.88;66.12;99103.53;5108699;28;20052;-38
2022/01/21 08:00:15;;;;;;;9.27;3.30;;;0.60;95.40;;;0.82;65.97;99097.69;5107118;28;20049;-38
2022/01/21 08:02:43;;;;;;;5.33;3.23;;;0.60;96.20;;;0.87;66.34;99107.03;5107578;28;20050;-38
2022/01/21 08:05:11;;;;;;;7.20;3.40;;;0.60;96.20;;;0.86;66.50;99107.13;5107447;28;20059;-38
2022/01/21 08:07:39;;;;;;;13.03;4.27;;;0.60;96.60;;;0.91;66.45;99111.28;5106645;28;20376;-38
2022/01/21 08:10:07;;;;;;;11.40;4.50;;;0.70;96.60;;;0.89;66.15;99107.88;5106102;28;20522;-38
2022/01/21 08:12:35;;;;;;;12.47;4.37;;;0.70;96.10;;;0.85;66.43;99103.63;5106727;28;20062;-38
2022/01/21 08:15:04;;;;;;;16.03;4.00;;;0.60;95.90;;;0.91;66.48;99106.03;5106471;28;20043;-38
2022/01/21 08:17:32;;;;;;;6.97;4.23;;;0.70;96.80;;;0.80;66.75;99097.75;5107128;28;20340;-38
2022/01/21 08:20:00;;;;;;;6.50;4.10;;;0.60;96.50;;;0.83;66.09;99092.38;5107033;28;20245;-38
2022/01/21 08:22:28;;;;;;;8.03;3.97;;;0.60;95.50;;;0.77;66.57;99100.50;5107772;28;20051;-38
2022/01/21 08:24:55;;;;;;;8.70;3.50;;;0.60;95.80;;;0.81;66.95;99103.84;5106413;28;20051;-38
2022/01/21 08:27:23;;;;;;;11.47;4.20;;;0.60;96.50;;;0.88;66.07;99102.69;5108140;28;20333;-38
2022/01/21 08:29:51;;;;;;;6.73;4.03;;;0.70;96.20;;;0.89;66.98;99093.88;5106804;28;20350;-38
2022/01/21 08:32:20;;;;;;;8.67;3.73;;;0.70;95.90;;;0.73;66.51;99091.91;5106720;28;20054;-38
2022/01/21 08:34:49;;;;;;;10.87;4.17;;;0.60;95.20;;;0.86;67.11;99089.63;5106768;28;20041;-38
2022/01/21 08:37:18;;;;;;;10.00;4.20;;;0.70;96.80;;;0.92;66.26;99091.97;5106108;28;20055;-37
2022/01/21 08:39:47;;;;;;;10.57;4.67;;;0.70;96.00;;;0.88;66.32;99103.53;5106098;28;20402;-37
2022/01/21 08:42:15;;;;;;;14.97;4.63;;;0.70;95.50;;;0.96;66.18;99106.66;5106374;28;20375;-37
2022/01/21 08:44:43;;;;;;;13.77;4.80;;;0.80;96.80;;;0.97;66.63;99118.03;5106477;28;20058;-38
2022/01/21 08:47:11;;;;;;;7.43;3.67;;;0.80;95.20;;;0.93;66.17;99116.44;5089464;28;20244;-38
2022/01/21 08:49:40;;;;;;;9.43;4.00;;;0.80;94.70;;;0.95;66.75;99122.47;5106847;28;20360;-38
2022/01/21 08:52:17;;;;;;;11.83;3.50;;;0.80;95.30;;;1.04;66.79;99127.31;5105576;28;20073;-38
2022/01/21 08:54:47;;;;;;;9.40;4.07;;;0.90;96.00;;;1.07;66.33;99116.72;5107284;28;20237;-39
2022/01/21 08:57:16;;;;;;;10.20;3.37;;;0.90;95.10;;;1.07;65.92;99126.38;5106342;28;20241;-39
2022/01/21 08:59:46;;;;;;;9.20;4.77;;;0.90;94.50;;;1.11;65.99;99120.06;5103231;28;20048;-39
2022/01/21 09:02:13;;;;;;;12.53;4.73;;;0.90;94.60;;;1.14;66.19;99127.78;5105967;28;20367;-39
2022/01/21 09:04:41;;;;;;;8.90;3.80;;;1.00;94.30;;;1.25;66.00;99122.09;5106024;28;20057;-39
2022/01/21 09:07:10;;;;;;;5.77;3.33;;;1.10;94.40;;;1.31;65.96;99121.81;5102661;28;20051;-39
2022/01/21 09:09:37;;;;;;;11.17;3.97;;;1.20;93.50;;;1.29;65.47;99123.66;5105180;28;20051;-39
2022/01/21 09:12:06;;;;;;;9.67;3.83;;;1.20;90.20;;;1.30;65.11;99120.09;5106323;28;20053;-39
2022/01/21 09:14:34;;;;;;;7.03;3.53;;;1.20;90.40;;;1.37;65.57;99116.28;5105993;28;20051;-39
2022/01/21 09:17:04;;;;;;;10.43;3.97;;;1.20;91.60;;;1.41;65.38;99106.50;5106002;28;20041;-39
2022/01/21 09:19:32;;;;;;;9.87;3.83;;;1.20;90.40;;;1.47;65.57;99109.69;5105647;28;20238;-39
2022/01/21 09:22:02;;;;;;;8.93;4.10;;;1.40;90.60;;;1.57;65.32;99110.16;5109199;28;20065;-39
2022/01/21 09:24:32;;;;;;;12.30;4.43;;;1.50;90.40;;;1.66;65.35;99120.25;5110672;28;20265;-39
2022/01/21 09:27:03;;;;;;;6.53;3.70;;;1.60;88.90;;;1.56;64.54;99129.47;5099815;28;20061;-39
2022/01/21 09:29:32;;;;;;;8.90;4.00;;;1.40;87.00;;;1.57;64.70;99115.41;5090303;28;20051;-39
2022/01/21 09:32:02;;;;;;;9.00;4.13;;;1.40;88.20;;;1.58;64.69;99106.63;5090520;28;20056;-39
2022/01/21 09:34:31;;;;;;;7.67;3.90;;;1.40;88.60;;;1.64;64.95;99119.47;5090341;28;20040;-39
2022/01/21 09:37:00;;;;;;;8.57;3.43;;;1.40;88.70;;;1.60;64.48;99112.66;5090254;28;20059;-39
2022/01/21 09:39:30;;;;;;;7.47;4.10;;;1.40;87.40;;;1.56;64.43;99121.59;5088962;28;20063;-39
2022/01/21 09:42:01;;;;;;;6.80;3.57;;;1.40;87.20;;;1.44;64.65;99127.38;5090130;28;20056;-39
2022/01/21 09:44:32;;;;;;;6.00;3.33;;;1.30;87.30;;;1.45;64.78;99123.81;5089372;28;20060;-37
2022/01/21 09:47:01;;;;;;;8.77;4.13;;;1.30;88.40;;;1.49;64.51;99133.25;5091379;28;20383;-37
2022/01/21 09:49:29;;;;;;;7.70;3.60;;;1.30;88.30;;;1.43;64.68;99141.41;5089518;28;20052;-38
2022/01/21 09:52:06;;;;;;;11.87;5.07;;;1.30;88.60;;;1.50;64.36;99146.34;5090205;28;20058;-38
2022/01/21 09:54:45;;;;;;;13.20;4.67;;;1.30;88.30;;;1.65;64.81;99147.44;5089112;28;20054;-38
2022/01/21 09:57:22;;;;;;;9.17;3.73;;;1.50;89.70;;;1.57;64.31;99157.41;5072683;28;20062;-38
2022/01/21 09:59:52;;;;;;;8.67;4.70;;;1.50;86.20;;;1.54;64.06;99161.03;5089323;28;20298;-38
2022/01/21 10:02:28;;;;;;;14.30;4.53;;;1.50;87.30;;;1.52;64.73;99164.66;5088936;28;20066;-38
2022/01/21 10:04:59;;;;;;;9.97;3.83;;;1.40;86.90;;;1.57;64.79;99168.78;5088116;28;20342;-38
2022/01/21 10:07:30;;;;;;;8.10;4.23;;;1.50;87.80;;;1.68;64.71;99173.53;5089994;28;20645;-38
2022/01/21 10:10:00;;;;;;;8.97;5.20;;;1.60;87.70;;;1.71;64.20;99169.94;5087213;28;20054;-38
2022/01/21 10:12:28;;;;;;;9.40;4.10;;;1.60;86.30;;;1.77;64.29;99172.28;5088619;28;20059;-38
2022/01/21 10:14:57;;;;;;;9.33;4.83;;;1.70;87.10;;;1.86;64.21;99171.88;5088155;28;20327;-38
2022/01/21 10:18:11;;;;;;;9.50;3.97;;;1.70;86.70;;;1.77;63.72;99167.03;5087092;28;20054;-39
2022/01/21 10:20:58;;;;;;;8.88;4.18;;;1.70;85.00;;;1.68;63.80;99156.94;5087642;28;20055;-38
2022/01/21 10:23:29;;;;;;;11.67;5.00;;;1.60;84.30;;;1.78;63.90;99171.34;5087488;28;20060;-38
2022/01/21 10:26:09;;;;;;;11.57;5.43;;;1.70;85.50;;;1.70;62.85;99169.06;5090133;28;20078;-38
2022/01/21 10:28:41;;;;;;;10.30;4.23;;;1.70;83.70;;;1.55;63.11;99168.00;5109092;28;20133;-38
2022/01/21 10:31:18;;;;;;;10.00;3.20;;;1.50;84.00;;;1.66;63.47;99169.28;5109083;28;20035;-38
2022/01/21 10:33:56;;;;;;;6.57;3.17;;;1.60;84.30;;;1.71;63.25;99169.94;5109082;28;20237;-38
2022/01/21 10:36:30;;;;;;;10.40;4.57;;;1.60;83.20;;;1.65;63.00;99163.19;5109597;28;20054;-39
2022/01/21 10:39:11;;;;;;;8.25;3.65;;;1.60;82.90;;;1.68;63.71;99164.81;5109300;28;20046;-38
2022/01/21 10:41:49;;;;;;;8.73;4.10;;;1.60;83.50;;;1.77;63.09;99153.91;5091264;28;20066;-39
2022/01/21 10:44:20;;;;;;;8.50;3.87;;;1.70;83.90;;;1.80;63.67;99160.78;5088458;28;20052;-38
2022/01/21 10:47:10;;;;;;;9.90;4.20;;;1.80;83.50;;;1.69;63.19;99148.16;5110002;28;20053;-38
2022/01/21 10:49:40;;;;;;;9.53;4.33;;;1.70;83.50;;;1.77;63.25;99149.50;5109294;28;20061;-38
2022/01/21 10:52:10;;;;;;;6.93;3.60;;;1.70;84.00;;;1.79;63.51;99152.06;5108475;28;20043;-38
2022/01/21 10:54:44;;;;;;;6.10;3.03;;;1.80;83.30;;;1.80;62.98;99142.41;5108109;28;20057;-39
2022/01/21 10:57:16;;;;;;;7.60;2.90;;;1.80;82.20;;;1.83;62.41;99151.00;5110124;28;20052;-38
2022/01/21 10:59:56;;;;;;;9.73;3.20;;;1.80;81.40;;;1.67;62.47;99142.13;5108777;28;20060;-38
2022/01/21 11:02:30;;;;;;;7.93;3.37;;;1.80;81.60;;;1.79;62.74;99146.81;5107768;28;20043;-39
2022/01/21 11:05:01;;;;;;;8.07;3.33;;;1.70;82.10;;;1.88;62.87;99148.16;5109322;28;20078;-39
2022/01/21 11:07:55;;;;;;;5.93;2.50;;;1.90;82.80;;;1.78;62.61;99142.47;5110457;28;20043;-38
2022/01/21 11:10:35;;;;;;;7.18;2.85;;;1.90;81.50;;;1.77;62.33;99144.25;5089958;28;20066;-39
2022/01/21 11:13:23;;;;;;;8.80;3.90;;;1.80;81.40;;;1.85;63.04;99141.28;5108905;28;20044;-39
2022/01/21 11:15:58;;;;;;;10.97;3.17;;;1.80;82.00;;;1.81;62.52;99139.72;5107962;28;20049;-39
2022/01/21 11:18:55;;;;;;;;;;;1.80;82.20;;;1.85;62.92;99132.56;5109866;28;20043;-38
2022/01/21 11:21:38;;;;;;;6.03;3.17;;;1.90;82.00;;;1.83;62.94;99139.66;5109057;28;19924;-38
2022/01/21 11:24:08;;;;;;;6.13;2.93;;;1.80;82.90;;;1.91;63.24;99133.09;5092565;28;20051;-39
2022/01/21 11:26:37;;;;;;;6.10;3.57;;;1.90;83.00;;;1.97;62.97;99129.34;5086395;28;20056;-39
2022/01/21 11:29:07;;;;;;;7.37;2.90;;;1.90;82.30;;;1.96;62.41;99122.41;5088165;28;20102;-39
2022/01/21 11:31:35;;;;;;;7.67;3.20;;;1.90;80.80;;;1.97;62.01;99121.47;5087184;28;20052;-39
2022/01/21 11:34:12;;;;;;;7.47;3.80;;;1.90;80.20;;;1.88;62.56;99122.75;5087542;28;20055;-38